Time;durP1;ratioP1;P1;durP2;ratioP2;P2;SDS_P1;SDS_P2;PMS_P1;PMS_P2;Temp;Humidity;BMP_temperature;BMP_pressure;BME280_temperature;BME280_humidity;BME280_pressure;Samples;Min_cycle;Max_cycle;Signal;HPM_P1;HPM_P2
2021/05/24 00:01:07;;;;;;;5.55;2.95;;;;;;;18.11;69.81;101230.98;1718955;83;20994;-72
2021/05/24 00:03:33;;;;;;;3.30;2.90;;;;;;;18.11;69.97;101229.66;1719326;83;21810;-70
2021/05/24 00:06:00;;;;;;;4.20;2.90;;;;;;;18.11;70.08;101230.14;1719188;83;20967;-70
2021/05/24 00:08:27;;;;;;;3.62;2.65;;;;;;;18.10;70.11;101228.00;1719203;83;21715;-71
2021/05/24 00:10:55;;;;;;;5.62;2.80;;;;;;;18.12;70.13;101233.13;1718892;83;21114;-70
2021/05/24 00:13:22;;;;;;;4.08;2.70;;;;;;;18.12;70.37;101237.91;1718833;83;21074;-71
2021/05/24 00:15:52;;;;;;;3.85;2.55;;;;;;;18.12;70.30;101236.59;1719153;83;20995;-70
2021/05/24 00:18:19;;;;;;;4.92;2.90;;;;;;;18.13;70.24;101240.02;1719250;83;21058;-71
2021/05/24 00:20:52;;;;;;;4.72;3.42;;;;;;;18.13;70.64;101242.65;1718940;83;20990;-71
2021/05/24 00:23:20;;;;;;;3.00;2.80;;;;;;;18.12;70.91;101242.33;1719067;83;21196;-70
2021/05/24 00:25:48;;;;;;;2.87;2.58;;;;;;;18.11;70.66;101240.66;1718506;83;21022;-70
2021/05/24 00:28:15;;;;;;;4.42;2.80;;;;;;;18.10;70.79;101240.30;1714201;83;20976;-70
2021/05/24 00:30:47;;;;;;;2.92;2.72;;;;;;;18.09;70.88;101239.48;1694492;84;20947;-71
2021/05/24 00:33:14;;;;;;;3.77;2.92;;;;;;;18.11;71.00;101227.52;1666687;86;21037;-71
2021/05/24 00:35:42;;;;;;;2.95;2.65;;;;;;;18.09;71.67;101225.52;1694562;84;22156;-71
2021/05/24 00:38:11;;;;;;;6.50;3.02;;;;;;;18.07;71.63;101217.77;1694735;84;21467;-72
2021/05/24 00:40:38;;;;;;;3.62;3.00;;;;;;;18.05;70.82;101213.14;1667048;86;21005;-71
2021/05/24 00:43:06;;;;;;;5.40;3.17;;;;;;;18.04;70.31;101204.91;1694757;84;21001;-74
2021/05/24 00:45:33;;;;;;;4.33;2.90;;;;;;;18.03;70.02;101202.43;1694969;84;21566;-72
2021/05/24 00:48:00;;;;;;;3.15;2.85;;;;;;;18.02;69.74;101195.03;1666573;86;21111;-74
2021/05/24 00:50:27;;;;;;;4.65;3.22;;;;;;;18.02;69.64;101196.34;1694716;84;21076;-70
2021/05/24 00:52:54;;;;;;;4.60;3.15;;;;;;;18.00;69.51;101205.33;1694710;84;20981;-72
2021/05/24 00:55:21;;;;;;;4.80;3.02;;;;;;;17.98;69.61;101210.70;1666795;86;21093;-72
2021/05/24 00:57:49;;;;;;;3.40;3.08;;;;;;;17.96;69.74;101216.58;1694723;84;21013;-72
2021/05/24 01:00:33;;;;;;;4.95;3.42;;;;;;;17.94;69.77;101210.62;1694776;84;21594;-73
2021/05/24 01:02:59;;;;;;;4.97;3.33;;;;;;;17.92;69.84;101212.56;1666659;86;21186;-72
2021/05/24 01:05:26;;;;;;;4.22;2.85;;;;;;;17.92;69.96;101205.99;1694800;84;20969;-71
2021/05/24 01:07:54;;;;;;;3.22;2.85;;;;;;;17.92;70.07;101208.62;1694877;84;21518;-72
2021/05/24 01:10:20;;;;;;;6.70;2.62;;;;;;;17.92;70.23;101200.74;1667040;86;20912;-71
2021/05/24 01:12:47;;;;;;;3.62;3.20;;;;;;;17.90;70.41;101203.48;1694597;84;21102;-72
2021/05/24 01:15:14;;;;;;;3.22;2.92;;;;;;;17.88;70.68;101205.43;1694728;84;21048;-72
2021/05/24 01:17:43;;;;;;;3.92;3.10;;;;;;;17.85;70.93;101204.39;1666724;86;20898;-72
2021/05/24 01:20:10;;;;;;;3.67;3.27;;;;;;;17.82;71.31;101208.59;1694859;84;20965;-73
2021/05/24 01:22:38;;;;;;;4.08;2.92;;;;;;;17.79;71.76;101209.34;1694755;84;21085;-74
2021/05/24 01:25:07;;;;;;;3.52;3.20;;;;;;;17.75;72.11;101206.63;1666752;86;21694;-72
2021/05/24 01:27:34;;;;;;;3.60;2.90;;;;;;;17.72;72.45;101209.05;1698686;84;21069;-68
2021/05/24 01:30:01;;;;;;;3.25;2.95;;;;;;;17.72;72.57;101213.46;1737309;82;20947;-72
2021/05/24 01:32:28;;;;;;;5.30;3.37;;;;;;;17.71;72.06;101213.14;1737293;82;21069;-73
2021/05/24 01:34:55;;;;;;;3.60;3.30;;;;;;;17.70;72.38;101214.09;1737323;82;21018;-73
2021/05/24 01:37:22;;;;;;;4.30;2.80;;;;;;;17.67;72.33;101220.92;1737410;82;21123;-72
2021/05/24 01:39:49;;;;;;;3.20;2.90;;;;;;;17.65;71.13;101214.95;1736916;82;21015;-72
2021/05/24 01:42:17;;;;;;;3.30;3.00;;;;;;;17.64;71.63;101222.02;1737043;82;21023;-70
2021/05/24 01:44:45;;;;;;;3.33;2.45;;;;;;;17.63;71.35;101233.47;1737033;82;21599;-71
2021/05/24 01:47:11;;;;;;;3.55;2.90;;;;;;;17.64;70.85;101250.05;1737397;82;20872;-72
2021/05/24 01:49:46;;;;;;;5.28;2.85;;;;;;;17.65;70.83;101254.32;1737244;82;21794;-72
2021/05/24 01:52:08;;;;;;;3.33;3.05;;;;;;;17.68;71.47;101265.87;1735887;82;20970;-72
2021/05/24 01:54:35;;;;;;;3.37;2.83;;;;;;;17.66;72.05;101274.37;1737371;82;20923;-72
2021/05/24 01:57:02;;;;;;;4.00;3.60;;;;;;;17.63;72.04;101274.63;1737500;82;20979;-72
2021/05/24 01:59:29;;;;;;;3.67;2.95;;;;;;;17.59;72.52;101288.97;1737420;82;20971;-72
2021/05/24 02:01:56;;;;;;;3.83;3.08;;;;;;;17.56;72.37;101299.26;1737371;82;21118;-72
2021/05/24 02:04:24;;;;;;;3.25;2.95;;;;;;;17.55;72.49;101292.81;1737522;82;20954;-71
2021/05/24 02:06:52;;;;;;;4.15;3.22;;;;;;;17.53;72.21;101313.92;1737285;82;21560;-71
2021/05/24 02:09:19;;;;;;;3.25;2.95;;;;;;;17.50;72.25;101327.30;1737394;82;21004;-72
2021/05/24 02:11:47;;;;;;;4.00;3.62;;;;;;;17.46;72.36;101333.28;1737583;82;21572;-71
2021/05/24 02:14:14;;;;;;;3.95;3.60;;;;;;;17.43;72.63;101345.83;1737376;82;21582;-73
2021/05/24 02:16:44;;;;;;;5.50;3.42;;;;;;;17.35;73.49;101370.58;1737332;82;21066;-81
2021/05/24 02:19:13;;;;;;;4.75;3.83;;;;;;;17.17;74.29;101366.83;1737546;82;21451;-73
2021/05/24 02:21:39;;;;;;;3.87;3.50;;;;;;;17.02;74.81;101354.98;1737706;82;21051;-73
2021/05/24 02:24:08;;;;;;;5.87;3.47;;;;;;;16.99;75.86;101346.89;1737481;82;20939;-76
2021/05/24 02:26:36;;;;;;;4.28;3.60;;;;;;;17.04;76.38;101338.66;1737072;82;21172;-73
2021/05/24 02:29:05;;;;;;;6.10;4.00;;;;;;;17.09;76.58;101337.80;1726979;83;21826;-76
2021/05/24 02:31:34;;;;;;;7.45;3.87;;;;;;;17.14;76.75;101348.72;1727565;83;20955;-74
2021/05/24 02:34:03;;;;;;;4.87;3.70;;;;;;;17.18;76.74;101344.42;1728819;83;20931;-71
2021/05/24 02:36:31;;;;;;;5.20;3.47;;;;;;;17.23;77.01;101344.86;1727443;83;21588;-71
2021/05/24 02:38:59;;;;;;;4.28;3.87;;;;;;;17.29;76.98;101348.28;1728969;83;21098;-73
2021/05/24 02:41:25;;;;;;;8.03;4.10;;;;;;;17.35;77.00;101333.84;1728530;83;21015;-70
2021/05/24 02:43:52;;;;;;;7.42;3.92;;;;;;;17.40;76.89;101331.18;1727628;83;22080;-70
2021/05/24 02:46:19;;;;;;;6.30;4.37;;;;;;;17.44;76.71;101327.34;1727671;83;21047;-72
2021/05/24 02:48:45;;;;;;;5.50;4.35;;;;;;;17.48;76.56;101330.55;1727600;83;21493;-69
2021/05/24 02:51:12;;;;;;;4.10;3.72;;;;;;;17.49;76.45;101319.06;1727026;83;21085;-73
2021/05/24 02:53:40;;;;;;;5.47;3.87;;;;;;;17.54;76.33;101330.50;1726889;83;21010;-71
2021/05/24 02:56:08;;;;;;;4.65;4.10;;;;;;;17.58;76.19;101337.20;1726829;83;20971;-75
2021/05/24 02:58:35;;;;;;;8.33;3.72;;;;;;;17.63;76.11;101341.56;1726954;83;21652;-72
2021/05/24 03:01:01;;;;;;;4.70;3.70;;;;;;;17.63;75.99;101336.31;1726993;83;20920;-70
2021/05/24 03:03:30;;;;;;;5.30;4.17;;;;;;;17.63;76.00;101343.71;1726789;83;21823;-71
2021/05/24 03:05:57;;;;;;;7.58;4.33;;;;;;;17.64;75.98;101358.98;1726746;83;21010;-71
2021/05/24 03:08:25;;;;;;;5.85;4.20;;;;;;;17.61;76.16;101360.08;1727033;83;21055;-74
2021/05/24 03:10:52;;;;;;;7.53;3.67;;;;;;;17.56;76.47;101366.66;1727357;83;21017;-72
2021/05/24 03:13:18;;;;;;;4.75;4.17;;;;;;;17.55;76.66;101370.23;1728463;83;20924;-71
2021/05/24 03:15:45;;;;;;;6.03;4.12;;;;;;;17.55;76.95;101367.12;1730723;83;21083;-72
2021/05/24 03:18:12;;;;;;;6.08;5.03;;;;;;;17.55;77.16;101370.23;1730503;83;20896;-78
2021/05/24 03:20:40;;;;;;;8.70;4.50;;;;;;;17.54;77.56;101361.52;1730550;83;20868;-75
2021/05/24 03:23:08;;;;;;;7.30;4.75;;;;;;;17.50;78.10;101369.77;1730966;83;21003;-73
2021/05/24 03:25:35;;;;;;;7.03;4.25;;;;;;;17.41;78.89;101409.42;1730041;83;20928;-71
2021/05/24 03:28:01;;;;;;;4.60;4.20;;;;;;;17.32;79.99;101454.78;1727545;83;21084;-73
2021/05/24 03:30:28;;;;;;;6.62;4.85;;;;;;;17.20;81.60;101462.34;1723965;83;20991;-78
2021/05/24 03:32:55;;;;;;;4.67;4.17;;;;;;;17.03;83.30;101464.17;1723990;83;21569;-75
2021/05/24 03:35:22;;;;;;;5.83;4.40;;;;;;;16.86;84.74;101448.47;1724072;83;20903;-74
2021/05/24 03:37:49;;;;;;;4.10;3.70;;;;;;;16.77;85.34;101441.34;1723925;83;21047;-81
2021/05/24 03:40:16;;;;;;;5.87;4.25;;;;;;;16.71;85.73;101441.83;1724121;83;21093;-74
2021/05/24 03:42:45;;;;;;;3.85;3.55;;;;;;;16.61;88.16;101427.78;1723890;83;21553;-78
2021/05/24 03:45:16;;;;;;;4.65;3.90;;;;;;;16.45;90.41;101415.03;1724006;83;21110;-75
2021/05/24 03:47:45;;;;;;;5.12;4.03;;;;;;;16.22;94.17;101404.19;1724109;83;20968;-78
2021/05/24 03:50:13;;;;;;;3.72;3.22;;;;;;;15.95;96.77;101398.02;1724254;83;20908;-82
2021/05/24 03:52:39;;;;;;;5.97;3.22;;;;;;;15.82;97.00;101402.52;1724220;83;21009;-78
2021/05/24 03:55:07;;;;;;;5.60;3.52;;;;;;;15.80;97.66;101421.41;1724085;83;20991;-79
2021/05/24 03:57:34;;;;;;;3.75;2.98;;;;;;;15.84;98.17;101434.16;1723939;83;20944;-77
2021/05/24 04:00:03;;;;;;;6.97;2.75;;;;;;;15.87;98.44;101437.84;1724094;83;21012;-78
2021/05/24 04:02:32;;;;;;;4.45;3.00;;;;;;;15.91;98.13;101437.15;1722794;83;20947;-75
2021/05/24 04:05:00;;;;;;;3.70;2.80;;;;;;;15.96;97.01;101444.16;1724008;83;21112;-72
2021/05/24 04:07:27;;;;;;;3.25;2.62;;;;;;;16.05;96.22;101440.84;1723832;83;21019;-78
2021/05/24 04:09:54;;;;;;;3.35;2.70;;;;;;;16.11;95.69;101442.17;1724036;83;20928;-69
2021/05/24 04:12:21;;;;;;;4.20;2.47;;;;;;;16.19;94.62;101453.72;1724042;83;21047;-71
2021/05/24 04:14:50;;;;;;;4.28;2.42;;;;;;;16.27;93.89;101457.07;1723998;83;20939;-75
2021/05/24 04:17:20;;;;;;;2.37;1.90;;;;;;;16.35;93.34;101452.06;1724021;83;21671;-71
2021/05/24 04:19:45;;;;;;;3.05;2.30;;;;;;;16.41;92.93;101452.42;1723744;83;21019;-71
2021/05/24 04:22:12;;;;;;;3.65;3.10;;;;;;;16.50;92.59;101468.36;1724036;83;20888;-71
2021/05/24 04:24:40;;;;;;;2.35;2.08;;;;;;;16.60;91.35;101477.20;1723903;83;20904;-70
2021/05/24 04:27:07;;;;;;;4.10;2.20;;;;;;;16.69;90.44;101474.70;1724177;82;21003;-72
2021/05/24 04:29:34;;;;;;;3.87;2.35;;;;;;;16.81;89.35;101477.69;1731816;82;21678;-72
2021/05/24 04:32:02;;;;;;;2.98;2.12;;;;;;;16.94;88.55;101491.97;1731740;82;21659;-70
2021/05/24 04:34:29;;;;;;;2.90;2.40;;;;;;;17.05;86.88;101505.52;1732011;82;21033;-70
2021/05/24 04:36:55;;;;;;;2.90;2.00;;;;;;;17.12;86.64;101506.70;1731996;82;21134;-73
2021/05/24 04:39:22;;;;;;;5.90;2.45;;;;;;;17.14;86.41;101525.28;1732095;82;20982;-74
2021/05/24 04:41:49;;;;;;;3.15;2.72;;;;;;;17.20;85.40;101531.86;1731953;82;21087;-77
2021/05/24 04:44:19;;;;;;;6.15;2.15;;;;;;;17.24;85.19;101549.83;1731880;82;21098;-72
2021/05/24 04:46:49;;;;;;;3.65;2.17;;;;;;;17.26;85.40;101551.03;1731993;82;20990;-76
2021/05/24 04:49:17;;;;;;;3.10;2.35;;;;;;;17.33;84.12;101556.96;1731951;82;21579;-76
2021/05/24 04:51:46;;;;;;;5.00;2.62;;;;;;;17.42;82.92;101567.22;1732047;82;20903;-74
2021/05/24 04:54:12;;;;;;;2.75;2.45;;;;;;;17.54;82.50;101587.70;1732023;82;20987;-73
2021/05/24 04:56:41;;;;;;;4.12;2.92;;;;;;;17.60;82.75;101592.48;1731794;82;20962;-74
2021/05/24 04:59:08;;;;;;;4.70;3.02;;;;;;;17.60;83.99;101595.11;1732010;82;21587;-74
2021/05/24 05:01:34;;;;;;;4.15;2.80;;;;;;;17.52;84.61;101586.48;1732110;82;20938;-72
2021/05/24 05:04:03;;;;;;;6.20;2.75;;;;;;;17.31;85.83;101569.85;1732128;82;21082;-75
2021/05/24 05:06:30;;;;;;;3.90;2.37;;;;;;;17.10;87.07;101575.50;1732080;82;21690;-73
2021/05/24 05:08:57;;;;;;;4.35;2.25;;;;;;;17.02;87.55;101579.19;1731749;82;20970;-76
2021/05/24 05:11:24;;;;;;;3.50;2.65;;;;;;;17.02;87.86;101577.88;1732031;82;21588;-72
2021/05/24 05:13:51;;;;;;;3.47;3.15;;;;;;;17.05;88.11;101570.60;1732180;82;20922;-73
2021/05/24 05:16:18;;;;;;;4.47;3.05;;;;;;;17.13;87.41;101570.01;1731595;82;21624;-71
2021/05/24 05:18:47;;;;;;;4.75;3.33;;;;;;;17.24;87.69;101568.20;1731929;82;21981;-71
2021/05/24 05:21:13;;;;;;;4.70;2.58;;;;;;;17.36;87.51;101579.48;1731905;82;20907;-69
2021/05/24 05:23:42;;;;;;;3.87;2.40;;;;;;;17.48;86.41;101581.16;1732000;82;20974;-73
2021/05/24 05:26:09;;;;;;;4.12;3.52;;;;;;;17.66;84.72;101583.63;1732022;82;21053;-74
2021/05/24 05:28:37;;;;;;;6.28;3.55;;;;;;;17.89;83.95;101594.41;1729865;82;20939;-73
2021/05/24 05:31:06;;;;;;;3.45;3.15;;;;;;;18.10;82.89;101591.80;1726876;83;21095;-80
2021/05/24 05:33:33;;;;;;;4.37;2.67;;;;;;;18.31;81.83;101591.83;1726665;83;21636;-72
2021/05/24 05:36:04;;;;;;;3.45;2.25;;;;;;;18.51;80.57;101584.93;1726667;83;21080;-72
2021/05/24 05:38:32;;;;;;;3.30;2.00;;;;;;;18.66;79.66;101594.14;1726964;83;20951;-76
2021/05/24 05:40:59;;;;;;;3.20;2.35;;;;;;;18.81;77.50;101600.71;1726652;83;20971;-73
2021/05/24 05:43:26;;;;;;;4.20;2.30;;;;;;;18.96;77.33;101596.75;1726948;83;21032;-74
2021/05/24 05:45:55;;;;;;;2.40;2.10;;;;;;;19.09;77.14;101605.73;1728290;83;21620;-75
2021/05/24 05:48:23;;;;;;;2.20;2.00;;;;;;;19.17;76.98;101601.48;1728107;83;21006;-78
2021/05/24 05:50:50;;;;;;;3.72;1.77;;;;;;;19.24;76.64;101596.52;1728842;83;21074;-77
2021/05/24 05:53:17;;;;;;;2.22;1.67;;;;;;;19.32;73.00;101604.09;1727994;83;21639;-73
2021/05/24 05:55:44;;;;;;;2.35;1.80;;;;;;;19.41;72.01;101611.20;1727550;83;21437;-73
2021/05/24 05:58:11;;;;;;;2.25;1.90;;;;;;;19.51;72.15;101611.22;1727016;83;20927;-77
2021/05/24 06:00:38;;;;;;;3.37;2.30;;;;;;;19.56;70.94;101609.00;1726482;83;20975;-75
2021/05/24 06:03:05;;;;;;;5.05;1.98;;;;;;;19.58;71.82;101603.62;1726652;83;20931;-72
2021/05/24 06:05:32;;;;;;;3.90;1.98;;;;;;;19.61;72.57;101607.30;1726955;83;21070;-73
2021/05/24 06:07:59;;;;;;;3.98;1.95;;;;;;;19.67;72.15;101610.21;1717136;83;21329;-75
2021/05/24 06:10:27;;;;;;;4.37;1.87;;;;;;;19.78;71.65;101609.27;1716829;83;21667;-78
2021/05/24 06:12:54;;;;;;;1.87;1.72;;;;;;;19.87;70.54;101613.22;1717416;83;20916;-76
2021/05/24 06:15:21;;;;;;;2.83;1.57;;;;;;;19.95;70.17;101614.67;1717204;83;21046;-79
2021/05/24 06:17:48;;;;;;;2.77;1.62;;;;;;;20.03;69.79;101625.84;1716890;83;21098;-70
2021/05/24 06:20:17;;;;;;;2.72;1.42;;;;;;;20.13;69.61;101633.75;1717163;83;21092;-77
2021/05/24 06:22:45;;;;;;;2.10;1.50;;;;;;;20.24;67.40;101638.38;1717041;83;21513;-73
2021/05/24 06:25:12;;;;;;;2.87;1.72;;;;;;;20.30;66.80;101640.96;1716892;83;21600;-72
2021/05/24 06:27:41;;;;;;;2.60;1.42;;;;;;;20.34;66.57;101642.36;1716776;83;21127;-81
2021/05/24 06:30:10;;;;;;;1.90;1.35;;;;;;;20.35;67.41;101655.89;1726330;83;21058;-74
2021/05/24 06:32:38;;;;;;;1.77;1.62;;;;;;;20.40;68.03;101651.02;1727057;83;21095;-79
2021/05/24 06:35:07;;;;;;;4.58;1.75;;;;;;;20.56;66.86;101657.86;1727138;83;20951;-77
2021/05/24 06:37:34;;;;;;;3.85;1.70;;;;;;;20.68;67.09;101657.23;1727184;83;21082;-78
2021/05/24 06:40:04;;;;;;;3.77;1.42;;;;;;;20.81;67.51;101654.61;1727192;83;21054;-77
2021/05/24 06:42:31;;;;;;;3.65;1.50;;;;;;;20.89;66.50;101660.02;1727420;83;20927;-79
2021/05/24 06:45:00;;;;;;;6.90;2.02;;;;;;;20.91;66.28;101658.06;1727190;83;21448;-80
2021/05/24 06:47:27;;;;;;;4.03;1.70;;;;;;;20.93;66.93;101652.14;1727271;83;20990;-75
2021/05/24 06:49:55;;;;;;;4.83;1.80;;;;;;;20.96;66.40;101675.59;1727188;83;20955;-77
2021/05/24 06:52:22;;;;;;;2.37;1.37;;;;;;;20.95;66.76;101677.08;1727121;83;21661;-76
2021/05/24 06:54:51;;;;;;;2.95;1.87;;;;;;;20.88;66.61;101679.45;1727210;83;21027;-73
2021/05/24 06:57:18;;;;;;;4.37;1.67;;;;;;;20.84;68.36;101685.98;1727192;83;21104;-77
2021/05/24 06:59:46;;;;;;;3.27;1.60;;;;;;;20.87;67.34;101686.18;1727246;83;21006;-80
2021/05/24 07:37:08;;;;;;;4.80;1.35;;;;;;;21.50;65.39;101756.75;1730219;82;21161;-72
2021/05/24 07:39:37;;;;;;;6.08;1.47;;;;;;;21.41;62.75;101760.75;1731041;82;21038;-77
2021/05/24 07:42:07;;;;;;;3.72;1.32;;;;;;;21.35;61.81;101768.73;1730301;82;21664;-78
2021/05/24 07:44:35;;;;;;;3.33;1.20;;;;;;;21.32;61.37;101781.39;1730221;82;21136;-77
2021/05/24 07:47:03;;;;;;;2.37;1.00;;;;;;;21.32;59.68;101780.07;1730527;81;21192;-77
2021/05/24 07:49:31;;;;;;;3.87;0.95;;;;;;;21.34;59.44;101786.90;1730382;82;21282;-81
2021/05/24 07:51:59;;;;;;;1.27;0.82;;;;;;;21.37;58.20;101786.61;1701629;82;21149;-73
2021/05/24 07:54:29;;;;;;;4.50;1.30;;;;;;;21.41;57.55;101779.23;1701988;82;21121;-76
2021/05/24 07:56:58;;;;;;;1.40;1.12;;;;;;;21.47;58.67;101780.81;1732282;82;21082;-77
2021/05/24 07:59:26;;;;;;;2.60;1.20;;;;;;;21.56;58.93;101785.22;1732768;82;21066;-76
2021/05/24 08:01:53;;;;;;;1.85;1.00;;;;;;;21.59;60.60;101775.69;1732772;82;21651;-80
2021/05/24 08:04:20;;;;;;;2.10;1.00;;;;;;;21.64;60.28;101785.80;1732559;82;21070;-80
2021/05/24 08:06:47;;;;;;;2.95;1.12;;;;;;;21.63;61.20;101792.89;1730234;82;21046;-79
2021/05/24 08:09:14;;;;;;;2.27;0.90;;;;;;;21.67;60.09;101802.68;1730145;82;21166;-77
2021/05/24 08:11:43;;;;;;;1.70;0.93;;;;;;;21.64;61.55;101798.52;1730015;82;21666;-76
2021/05/24 08:14:15;;;;;;;3.40;0.75;;;;;;;21.68;60.50;101808.80;1729998;82;21599;-75
2021/05/24 08:21:10;;;;;;;1.60;0.70;;;;;;;21.66;58.37;101818.69;1730552;82;21632;-73
2021/05/24 08:23:55;;;;;;;1.50;1.02;;;;;;;21.76;59.04;101830.06;1612322;87;21151;-74
2021/05/24 08:26:56;;;;;;;12.10;2.12;;;;;;;21.73;58.26;101839.59;1612379;88;21160;-78
2021/05/24 08:29:23;;;;;;;1.77;1.10;;;;;;;21.58;58.91;101850.62;1634607;87;21136;-72
2021/05/24 08:31:50;;;;;;;2.98;0.90;;;;;;;21.44;57.65;101840.50;1641750;87;21164;-80
2021/05/24 08:34:18;;;;;;;1.15;0.60;;;;;;;21.47;59.95;101856.09;1641941;87;21016;-74
2021/05/24 08:36:46;;;;;;;2.58;0.80;;;;;;;21.62;58.75;101844.56;1641944;87;21987;-75
2021/05/24 08:39:13;;;;;;;1.75;0.90;;;;;;;21.77;57.91;101848.88;1640825;86;21099;-78
2021/05/24 08:41:40;;;;;;;3.85;0.80;;;;;;;21.86;57.19;101838.27;1639272;87;21723;-77
2021/05/24 08:56:47;;;;;;;5.50;0.90;;;;;;;21.72;53.91;101857.26;1637616;87;21129;-77
2021/05/24 08:59:14;;;;;;;2.62;0.72;;;;;;;21.42;55.33;101866.23;1637755;87;21194;-80
2021/05/24 09:01:41;;;;;;;5.35;0.98;;;;;;;21.45;56.55;101866.42;1637403;87;21145;-78
2021/05/24 09:26:17;;;;;;;3.60;0.90;;;;;;;21.28;52.31;101900.17;1668749;85;21032;-77
2021/05/24 09:28:48;;;;;;;3.22;0.90;;;;;;;21.40;51.58;101896.40;1693516;84;21173;-76
2021/05/24 09:31:32;;;;;;;1.80;0.80;;;;;;;21.32;52.36;101897.09;1693677;84;21769;-77
2021/05/24 09:34:00;;;;;;;3.75;0.80;;;;;;;21.37;52.60;101898.84;1719801;83;21079;-75
2021/05/24 09:36:29;;;;;;;1.40;0.60;;;;;;;21.42;50.76;101893.12;1720613;82;21011;-79
2021/05/24 09:39:10;;;;;;;3.20;0.98;;;;;;;21.42;49.51;101903.69;1719365;82;21031;-75
2021/05/24 09:41:43;;;;;;;0.70;0.70;;;;;;;21.44;51.30;101901.75;1719138;83;21240;-74
2021/05/24 09:44:26;;;;;;;0.72;0.72;;;;;;;21.52;50.76;101902.70;1718460;83;21135;-74
2021/05/24 09:46:55;;;;;;;1.85;1.20;;;;;;;21.57;49.33;101904.42;1718194;82;21080;-74
2021/05/24 09:49:28;;;;;;;1.50;0.60;;;;;;;21.54;50.78;101896.78;1718896;82;20944;-79
2021/05/24 09:51:56;;;;;;;2.35;0.90;;;;;;;21.51;48.39;101890.46;1718527;82;21055;-75
2021/05/24 09:54:32;;;;;;;3.20;1.00;;;;;;;21.53;46.42;101898.26;1718428;82;21083;-79
2021/05/24 09:57:05;;;;;;;3.17;1.12;;;;;;;22.14;45.88;101888.08;1718011;82;21119;-76
2021/05/24 09:59:35;;;;;;;2.05;1.00;;;;;;;22.83;44.05;101876.95;1718636;83;21111;-77
2021/05/24 10:02:03;;;;;;;1.95;0.70;;;;;;;23.22;43.21;101866.38;1718429;83;21684;-76
2021/05/24 10:04:34;;;;;;;2.70;1.00;;;;;;;23.54;43.65;101863.98;1718525;83;21526;-73
2021/05/24 10:07:02;;;;;;;1.90;1.00;;;;;;;23.96;43.97;101877.31;1743721;81;21216;-80
2021/05/24 10:09:35;;;;;;;2.95;1.15;;;;;;;24.29;41.61;101888.89;1744023;82;21120;-78
2021/05/24 10:12:07;;;;;;;2.50;1.32;;;;;;;24.12;40.92;101870.75;1743961;81;21662;-80
2021/05/24 10:14:34;;;;;;;4.12;2.10;;;;;;;23.82;41.69;101891.14;1743941;81;21091;-78
2021/05/24 10:17:03;;;;;;;2.15;1.42;;;;;;;23.59;41.04;101887.34;1745626;82;21121;-76
2021/05/24 10:19:32;;;;;;;1.85;1.27;;;;;;;23.51;41.96;101885.98;1718367;82;20996;-77
2021/05/24 10:21:59;;;;;;;3.20;1.77;;;;;;;23.42;43.02;101892.22;1718496;83;21681;-77
2021/05/24 10:24:28;;;;;;;8.03;3.42;;;;;;;23.30;43.74;101891.58;1718114;83;21101;-79
2021/05/24 10:26:59;;;;;;;2.12;1.62;;;;;;;23.26;45.21;101896.88;1717911;83;21215;-78
2021/05/24 10:29:26;;;;;;;4.50;1.45;;;;;;;23.25;44.01;101885.09;1753331;81;22282;-77
2021/05/24 10:31:53;;;;;;;5.08;1.72;;;;;;;23.17;44.08;101891.98;1753281;81;21103;-77
2021/05/24 10:34:24;;;;;;;2.65;1.20;;;;;;;23.14;44.45;101890.13;1752785;81;21060;-81
2021/05/24 10:37:08;;;;;;;3.90;1.95;;;;;;;23.05;43.86;101889.23;1753321;81;21612;-81
2021/05/24 10:40:01;;;;;;;6.72;1.87;;;;;;;22.86;44.14;101893.36;1752841;81;21643;-74
2021/05/24 10:42:42;;;;;;;3.65;1.98;;;;;;;22.80;44.43;101879.90;1754733;81;21031;-81
2021/05/24 10:45:25;;;;;;;2.62;1.30;;;;;;;22.84;45.62;101888.72;1743703;81;21111;-77
2021/05/24 10:47:54;;;;;;;;;;;;;;;22.90;43.71;101904.48;1757460;81;21585;-78
2021/05/24 10:50:21;;;;;;;2.50;1.30;;;;;;;22.91;43.63;101915.42;1755170;81;21047;-75
2021/05/24 10:53:08;;;;;;;2.15;1.22;;;;;;;22.82;44.64;101926.40;1754992;81;21062;-77
2021/05/24 10:55:44;;;;;;;3.70;1.65;;;;;;;22.75;43.48;101917.91;1725161;81;21656;-73
2021/05/24 10:58:15;;;;;;;3.15;1.57;;;;;;;22.65;44.46;101920.58;1753566;81;21170;-76
2021/05/24 11:01:03;;;;;;;3.85;1.85;;;;;;;22.64;45.07;101926.84;1753964;81;22171;-77
2021/05/24 11:03:31;;;;;;;2.42;1.40;;;;;;;22.61;43.86;101923.17;1753715;80;21092;-79
2021/05/24 11:06:16;;;;;;;5.55;3.02;;;;;;;22.44;45.20;101930.09;1753531;80;21696;-79
2021/05/24 11:09:00;;;;;;;4.72;2.27;;;;;;;22.48;43.80;101926.17;1702848;81;21683;-76
2021/05/24 11:11:32;;;;;;;8.95;1.70;;;;;;;22.56;44.34;101918.80;1753449;81;21054;-77
2021/05/24 11:14:09;;;;;;;1.47;1.17;;;;;;;22.66;45.68;101914.32;1753877;81;21651;-74
2021/05/24 11:16:37;;;;;;;1.30;1.20;;;;;;;22.80;43.88;101916.95;1753493;81;21904;-82
2021/05/24 11:19:16;;;;;;;4.40;1.25;;;;;;;22.73;43.94;101918.52;1753512;81;20972;-74
2021/05/24 11:21:53;;;;;;;1.42;1.20;;;;;;;22.74;44.41;101921.52;1753457;80;21691;-77
2021/05/24 11:24:40;;;;;;;1.40;1.10;;;;;;;22.88;45.43;101915.20;1748649;81;21130;-79
2021/05/24 11:27:11;;;;;;;1.77;1.20;;;;;;;23.04;42.43;101919.34;1753501;81;20998;-76
2021/05/24 11:29:40;;;;;;;9.13;1.23;;;;;;;23.12;42.27;101923.40;1749258;82;21106;-78
2021/05/24 11:32:25;;;;;;;1.95;1.40;;;;;;;23.47;42.77;101927.85;1748680;82;21063;-81
2021/05/24 11:34:56;;;;;;;9.63;1.50;;;;;;;23.58;41.89;101918.31;1748506;82;20979;-79
2021/05/24 11:37:43;;;;;;;5.78;1.50;;;;;;;23.51;43.29;101934.52;1752519;81;21063;-76
2021/05/24 11:40:16;;;;;;;3.98;1.30;;;;;;;23.45;42.21;101929.00;1748599;81;21047;-77
2021/05/24 11:42:43;;;;;;;2.87;1.27;;;;;;;23.46;42.18;101934.13;1748443;82;21126;-82
2021/05/24 11:45:22;;;;;;;5.42;1.75;;;;;;;23.46;40.98;101926.18;1748511;82;21023;-77
2021/05/24 11:48:00;;;;;;;4.17;1.50;;;;;;;23.46;42.91;101922.69;1748457;82;21138;-74
2021/05/24 11:50:29;;;;;;;3.37;1.10;;;;;;;23.53;41.29;101930.38;1748404;82;21613;-75
2021/05/24 11:52:57;;;;;;;5.83;1.98;;;;;;;23.40;42.09;101928.61;1748521;82;21059;-80
2021/05/24 11:55:24;;;;;;;8.28;1.52;;;;;;;23.46;42.33;101933.30;1748771;82;21100;-79
2021/05/24 11:57:51;;;;;;;8.10;1.10;;;;;;;23.48;40.53;101932.18;1748261;82;21011;-76
2021/05/24 12:00:23;;;;;;;2.87;1.12;;;;;;;23.38;41.14;101926.59;1748706;82;20979;-73
2021/05/24 12:02:51;;;;;;;2.10;1.00;;;;;;;23.44;41.16;101930.81;1748442;82;21050;-76
2021/05/24 12:05:20;;;;;;;2.90;0.90;;;;;;;23.42;41.66;101922.17;1748560;82;21068;-77
2021/05/24 12:07:47;;;;;;;6.50;0.82;;;;;;;23.49;39.77;101926.36;1748559;82;21072;-77
2021/05/24 12:10:15;;;;;;;4.45;1.02;;;;;;;23.52;41.26;101931.34;1748456;82;21007;-75
2021/05/24 12:12:45;;;;;;;1.57;0.90;;;;;;;23.61;40.05;101922.50;1748402;81;21598;-77
2021/05/24 12:15:16;;;;;;;3.40;0.80;;;;;;;23.65;39.83;101923.34;1748816;82;20892;-75
2021/05/24 12:17:49;;;;;;;5.90;1.00;;;;;;;23.72;39.95;101930.17;1748872;82;20995;-77
2021/05/24 12:20:17;;;;;;;3.83;1.10;;;;;;;23.74;40.25;101932.69;1748506;82;21070;-79
2021/05/24 12:22:46;;;;;;;2.25;0.80;;;;;;;23.74;40.82;101926.86;1748482;82;21067;-76
2021/05/24 12:25:17;;;;;;;8.10;1.05;;;;;;;23.66;38.92;101932.13;1748655;82;21107;-74
2021/05/24 12:27:44;;;;;;;8.05;7.35;;;;;;;23.49;39.58;101912.63;1748475;81;21059;-75
2021/05/24 12:30:29;;;;;;;2.95;0.90;;;;;;;23.44;41.74;101918.05;1748970;81;21827;-75
2021/05/24 12:33:08;;;;;;;1.32;0.80;;;;;;;23.54;40.65;101914.82;1749215;82;21609;-77
2021/05/24 12:35:38;;;;;;;2.02;0.95;;;;;;;23.76;41.15;101923.58;1750744;80;20944;-76
2021/05/24 12:38:20;;;;;;;5.83;0.90;;;;;;;23.81;38.94;101914.66;1749801;81;21015;-78
2021/05/24 12:40:54;;;;;;;2.90;0.70;;;;;;;23.78;39.50;101923.41;1749965;80;21055;-74
2021/05/24 12:43:22;;;;;;;3.55;0.80;;;;;;;23.74;38.30;101922.89;1751040;82;21151;-77
2021/05/24 12:45:49;;;;;;;7.10;0.72;;;;;;;23.64;39.26;101914.23;1752677;81;22961;-77
2021/05/24 12:48:24;;;;;;;3.40;0.85;;;;;;;23.64;39.31;101914.23;1752531;81;21027;-79